Airfield :
LOGIN :

Register | Disclaimer

   EN    FR    IT 

 










Legend :    VFR   Marginal VFR   IFR   Intensive IFR   Very Intensive IFR
Visi :
Ceiling :
>= 8 km
>= 3000ft
5 to 8 km
1000 to 3000 ft
1500m to 5 km
500 to 1000 ft
800 to 1500m
200 to 500 ft
< 800m
< 200 ft
Symbols :   Thunderstorms  Fog  Heavy snow  Heavy precipitations  Wind > 20 kt
SIGMETs :     Misc.  Thunderstorms  Icing  Turbulence  Mountain Waves  Volcanic Ashes






- Airport Elevation : 146 ft
- IATA code : RKE


EKRK - Roskilde Tune

CURRENT METAR :
  • 161150Z AUTO 20012KT 9999 FEW120/// 06/03 Q1003

EXPIRED METARs :
  • 161120Z AUTO 20012KT 9999 FEW100/// 06/03 Q1003
  • 161050Z AUTO 19011KT 9999 SCT120/// 06/03 Q1003
  • 161020Z AUTO 19010KT 9999 -RA BKN120/// 05/02 Q1004
  • 160950Z AUTO 17008KT 9999 BKN120/// 05/03 Q1004
  • 160920Z AUTO 16008KT 9999 BKN130/// 04/03 Q1004

TAF TAF EKRK
Valid from the 16 at 12:00 until the 16 at 21:00 UTC


161108Z 1612/1621 21012KT 9999 SCT012
TEMPO 1617/1621 4000 BR BKN008



MET'MAP, your aeronautical weather chart ! - Copyright ORBIFLY December 2007 - Disclaimer

ORBIFLY MET'MAP TEAM :

Programming & Development : Alexandra Zaïnal
Concept & original design : Baudouin d'Aumeries
Assistance for programming : Marc-Olivier Méhu
Technical & hardware support : Manuel Goepfert

Contact : metmap@orbifly.com




SOURCES & CREDITS :

   NOAA